createdAt,value
2018-05-05T00:00:56.135Z,10.4
2018-05-05T00:02:05.539Z,10.34
2018-05-05T00:03:14.372Z,10.29
2018-05-05T00:04:23.204Z,10.3
2018-05-05T00:05:32.038Z,10.33
2018-05-05T00:06:41.145Z,10.27
2018-05-05T00:07:49.982Z,10.33
2018-05-05T00:08:58.816Z,10.25
2018-05-05T00:10:07.922Z,10.23
2018-05-05T00:11:17.032Z,10.23
2018-05-05T00:12:25.864Z,10.14
2018-05-05T00:13:34.749Z,10.25
2018-05-05T00:14:43.582Z,10.17
2018-05-05T00:15:52.691Z,10.17
2018-05-05T00:17:01.521Z,10.11
2018-05-05T00:18:10.356Z,10.07
2018-05-05T00:19:19.237Z,10.08
2018-05-05T00:20:28.072Z,10.11
2018-05-05T00:21:36.905Z,10.08
2018-05-05T00:22:45.736Z,10.12
2018-05-05T00:23:54.843Z,10.07
2018-05-05T00:25:03.783Z,9.96
2018-05-05T00:26:12.616Z,9.89
2018-05-05T00:27:21.459Z,9.99
2018-05-05T00:28:30.296Z,9.91
2018-05-05T00:29:39.682Z,9.94
2018-05-05T00:30:48.615Z,9.94
2018-05-05T00:31:57.729Z,9.99
2018-05-05T00:33:06.802Z,10.04
2018-05-05T00:34:15.684Z,10.01
2018-05-05T00:35:24.516Z,9.97
2018-05-05T00:36:33.383Z,9.96
2018-05-05T00:37:42.492Z,9.97
2018-05-05T00:38:51.597Z,9.93
2018-05-05T00:40:00.433Z,9.91
2018-05-05T00:41:09.263Z,9.79
2018-05-05T00:42:18.195Z,9.81
2018-05-05T00:43:27.036Z,9.94
2018-05-05T00:44:35.873Z,9.93
2018-05-05T00:45:44.699Z,9.83
2018-05-05T00:46:53.534Z,9.78
2018-05-05T00:48:02.791Z,9.78
2018-05-05T00:49:11.897Z,9.79
2018-05-05T00:50:20.730Z,9.84
2018-05-05T00:51:29.839Z,9.64
2018-05-05T00:52:38.674Z,9.66
2018-05-05T00:53:47.660Z,9.68
2018-05-05T00:54:56.763Z,9.65
2018-05-05T00:56:05.598Z,9.66
2018-05-05T00:57:14.432Z,9.66
2018-05-05T00:58:23.262Z,9.65
2018-05-05T00:59:32.545Z,9.68
2018-05-05T01:00:41.376Z,9.66
2018-05-05T01:01:50.481Z,9.68
2018-05-05T01:02:59.316Z,9.69
2018-05-05T01:04:08.147Z,9.61
2018-05-05T01:05:16.979Z,9.54
2018-05-05T01:06:25.812Z,9.54
2018-05-05T01:07:34.646Z,9.61
2018-05-05T01:08:43.750Z,9.54
2018-05-05T01:09:52.581Z,9.51
2018-05-05T01:11:01.697Z,9.51
2018-05-05T01:12:10.804Z,9.43
2018-05-05T01:13:19.911Z,9.48
2018-05-05T01:14:28.748Z,9.47
2018-05-05T01:15:37.852Z,9.48
2018-05-05T01:16:46.886Z,9.43
2018-05-05T01:17:55.719Z,9.43
2018-05-05T01:19:04.551Z,9.48
2018-05-05T01:20:13.381Z,9.46
2018-05-05T01:21:22.215Z,9.48
2018-05-05T01:22:31.095Z,9.47
2018-05-05T01:23:39.928Z,9.47
2018-05-05T01:24:48.762Z,9.43
2018-05-05T01:25:57.594Z,9.46
2018-05-05T01:27:06.425Z,9.35
2018-05-05T01:28:15.257Z,9.39
2018-05-05T01:29:24.092Z,9.36
2018-05-05T01:30:32.922Z,9.32
2018-05-05T01:31:41.753Z,9.23
2018-05-05T01:32:50.581Z,9.26
2018-05-05T01:33:59.866Z,9.32
2018-05-05T01:35:08.698Z,9.38
2018-05-05T01:36:17.532Z,9.23
2018-05-05T01:37:26.370Z,9.29
2018-05-05T01:38:35.204Z,9.23
2018-05-05T01:39:44.409Z,9.23
2018-05-05T01:40:53.243Z,9.17
2018-05-05T01:42:02.076Z,9.1
2018-05-05T01:43:10.909Z,9.13
2018-05-05T01:44:19.742Z,9.13
2018-05-05T01:45:28.724Z,9.05
2018-05-05T01:46:37.555Z,9.04
2018-05-05T01:47:46.671Z,8.98
2018-05-05T01:48:55.503Z,9.01
2018-05-05T01:50:04.337Z,8.99
2018-05-05T01:51:13.596Z,8.99
2018-05-05T01:52:22.429Z,8.98
2018-05-05T01:53:31.262Z,8.89
2018-05-05T01:54:40.094Z,8.95
2018-05-05T01:55:49.474Z,9.02
2018-05-05T01:56:58.407Z,8.86
2018-05-05T01:58:07.511Z,8.92
2018-05-05T01:59:16.625Z,8.84
2018-05-05T02:00:25.468Z,8.86
2018-05-05T02:01:34.285Z,8.76
2018-05-05T02:02:43.449Z,8.74
2018-05-05T02:03:52.271Z,8.79
2018-05-05T02:05:01.107Z,8.76
2018-05-05T02:06:10.211Z,8.71
2018-05-05T02:07:19.315Z,8.73
2018-05-05T02:08:28.300Z,8.68
2018-05-05T02:09:37.412Z,8.65
2018-05-05T02:10:46.248Z,8.61
2018-05-05T02:11:55.351Z,8.55
2018-05-05T02:13:04.183Z,8.56
2018-05-05T02:14:13.290Z,8.58
2018-05-05T02:15:22.123Z,8.5
2018-05-05T02:16:30.954Z,8.56
2018-05-05T02:17:39.786Z,8.47
2018-05-05T02:18:48.893Z,8.47
2018-05-05T02:19:57.999Z,8.52
2018-05-05T02:21:06.831Z,8.52
2018-05-05T02:22:15.668Z,8.47
2018-05-05T02:23:24.771Z,8.52
2018-05-05T02:24:33.607Z,8.53
2018-05-05T02:25:42.893Z,8.5
2018-05-05T02:26:51.732Z,8.45
2018-05-05T02:28:00.564Z,8.44
2018-05-05T02:29:09.397Z,8.43
2018-05-05T02:30:18.609Z,8.45
2018-05-05T02:31:27.966Z,8.45
2018-05-05T02:32:37.077Z,8.47
2018-05-05T02:33:46.187Z,8.47
2018-05-05T02:34:55.018Z,8.43
2018-05-05T02:36:04.398Z,8.47
2018-05-05T02:37:13.663Z,8.48
2018-05-05T02:38:23.058Z,8.5
2018-05-05T02:39:31.893Z,8.48
2018-05-05T02:40:41.012Z,8.52
2018-05-05T02:41:50.397Z,8.4
2018-05-05T02:42:59.979Z,8.44
2018-05-05T02:44:09.368Z,8.36
2018-05-05T02:45:18.763Z,8.4
2018-05-05T02:46:27.869Z,8.44
2018-05-05T02:47:36.709Z,8.3
2018-05-05T02:48:46.813Z,8.4
2018-05-05T02:49:55.648Z,8.36
2018-05-05T02:51:04.747Z,8.3
2018-05-05T02:52:13.853Z,8.3
2018-05-05T02:53:22.684Z,8.26
2018-05-05T02:54:31.900Z,8.3
2018-05-05T02:55:40.734Z,8.3
2018-05-05T02:56:49.565Z,8.36
2018-05-05T02:57:58.671Z,8.38
2018-05-05T02:59:07.552Z,8.29
2018-05-05T03:00:16.941Z,8.33
2018-05-05T03:01:26.610Z,8.28
2018-05-05T03:02:35.716Z,8.37
2018-05-05T03:03:44.822Z,8.3
2018-05-05T03:04:54.205Z,8.29
2018-05-05T03:06:03.086Z,8.33
2018-05-05T03:07:12.477Z,8.36
2018-05-05T03:08:21.584Z,8.37
2018-05-05T03:09:30.699Z,8.29
2018-05-05T03:10:40.086Z,8.36
2018-05-05T03:11:49.076Z,8.3
2018-05-05T03:12:58.461Z,8.34
2018-05-05T03:14:07.575Z,8.3
2018-05-05T03:15:16.408Z,8.25
2018-05-05T03:16:25.243Z,8.3
2018-05-05T03:17:34.070Z,8.29
2018-05-05T03:18:42.902Z,8.2
2018-05-05T03:19:52.011Z,8.22
2018-05-05T03:21:00.839Z,8.18
2018-05-05T03:22:09.669Z,8.15
2018-05-05T03:23:18.550Z,8.1
2018-05-05T03:24:27.385Z,8.15
2018-05-05T03:25:36.215Z,8.16
2018-05-05T03:26:45.086Z,8.07
2018-05-05T03:27:53.879Z,8.1
2018-05-05T03:29:02.710Z,8.07
2018-05-05T03:30:11.552Z,8.11
2018-05-05T03:31:20.661Z,8.1
2018-05-05T03:32:29.498Z,7.95
2018-05-05T03:33:38.328Z,7.97
2018-05-05T03:34:47.510Z,7.93
2018-05-05T03:35:56.339Z,8.01
2018-05-05T03:37:05.177Z,7.87
2018-05-05T03:38:14.277Z,7.83
2018-05-05T03:39:23.385Z,7.87
2018-05-05T03:40:32.642Z,7.87
2018-05-05T03:41:41.474Z,7.98
2018-05-05T03:42:50.303Z,7.87
2018-05-05T03:43:59.133Z,7.87
2018-05-05T03:45:07.966Z,7.86
2018-05-05T03:46:16.940Z,7.89
2018-05-05T03:47:25.773Z,7.92
2018-05-05T03:48:34.608Z,7.87
2018-05-05T03:49:43.446Z,7.87
2018-05-05T03:50:52.547Z,7.85
2018-05-05T03:52:01.728Z,7.9
2018-05-05T03:53:10.557Z,7.85
2018-05-05T03:54:19.394Z,7.79
2018-05-05T03:55:28.225Z,7.82
2018-05-05T03:56:37.333Z,7.82
2018-05-05T03:57:46.517Z,7.83
2018-05-05T03:58:55.624Z,7.69
2018-05-05T04:00:04.454Z,7.8
2018-05-05T04:01:13.286Z,7.79
2018-05-05T04:02:22.124Z,7.8
2018-05-05T04:03:31.060Z,7.71
2018-05-05T04:04:39.893Z,7.71
2018-05-05T04:05:48.999Z,7.75
2018-05-05T04:06:57.884Z,7.74
2018-05-05T04:08:06.716Z,7.77
2018-05-05T04:09:16.172Z,7.77
2018-05-05T04:10:24.999Z,7.61
2018-05-05T04:11:33.833Z,7.74
2018-05-05T04:12:42.667Z,7.68
2018-05-05T04:13:51.495Z,7.67
2018-05-05T04:15:00.376Z,7.67
2018-05-05T04:16:09.486Z,7.69
2018-05-05T04:17:18.318Z,7.68
2018-05-05T04:18:27.202Z,7.68
2018-05-05T04:19:36.075Z,7.6
2018-05-05T04:20:45.565Z,7.63
2018-05-05T04:21:54.402Z,7.67
2018-05-05T04:23:03.235Z,7.69
2018-05-05T04:24:12.067Z,7.71
2018-05-05T04:25:20.899Z,7.77
2018-05-05T04:26:29.731Z,7.82
2018-05-05T04:27:38.566Z,7.85
2018-05-05T04:28:47.397Z,7.83
2018-05-05T04:29:56.222Z,7.83
2018-05-05T04:31:05.333Z,7.79
2018-05-05T04:32:14.161Z,7.85
2018-05-05T04:33:23.008Z,7.83
2018-05-05T04:34:31.848Z,7.85
2018-05-05T04:35:40.677Z,7.83
2018-05-05T04:36:49.817Z,7.87
2018-05-05T04:37:58.925Z,7.85
2018-05-05T04:39:07.751Z,7.85
2018-05-05T04:40:16.861Z,7.92
2018-05-05T04:41:25.982Z,7.89
2018-05-05T04:42:34.816Z,7.92
2018-05-05T04:43:43.925Z,7.9
2018-05-05T04:44:52.762Z,7.85
2018-05-05T04:46:01.868Z,8.01
2018-05-05T04:47:10.695Z,8.02
2018-05-05T04:48:19.525Z,7.97
2018-05-05T04:49:28.357Z,8
2018-05-05T04:50:37.620Z,8.04
2018-05-05T04:51:47.587Z,8.04
2018-05-05T04:52:56.418Z,8.04
2018-05-05T04:54:05.251Z,8.11
2018-05-05T04:55:14.360Z,8.16
2018-05-05T04:56:23.468Z,8.11
2018-05-05T04:57:32.298Z,8.22
2018-05-05T04:58:41.420Z,8.11
2018-05-05T04:59:50.527Z,8.2
2018-05-05T05:00:59.631Z,8.19
2018-05-05T05:02:08.464Z,8.22
2018-05-05T05:03:17.300Z,8.25
2018-05-05T05:04:26.412Z,8.28
2018-05-05T05:05:36.071Z,8.28
2018-05-05T05:06:44.905Z,8.38
2018-05-05T05:07:54.007Z,8.34
2018-05-05T05:09:02.939Z,8.37
2018-05-05T05:10:11.770Z,8.37
2018-05-05T05:11:20.873Z,8.38
2018-05-05T05:12:29.978Z,8.45
2018-05-05T05:13:38.811Z,8.48
2018-05-05T05:14:47.993Z,8.48
2018-05-05T05:15:56.831Z,8.45
2018-05-05T05:17:05.936Z,8.45
2018-05-05T05:18:15.050Z,8.61
2018-05-05T05:19:23.886Z,8.52
2018-05-05T05:20:32.868Z,8.55
2018-05-05T05:21:41.697Z,8.63
2018-05-05T05:22:50.530Z,8.63
2018-05-05T05:23:59.363Z,8.63
2018-05-05T05:25:08.196Z,8.59
2018-05-05T05:26:17.081Z,8.7
2018-05-05T05:27:25.912Z,8.65
2018-05-05T05:28:35.117Z,8.73
2018-05-05T05:29:43.951Z,8.73
2018-05-05T05:30:52.784Z,8.76
2018-05-05T05:32:02.065Z,8.73
2018-05-05T05:33:10.905Z,8.73
2018-05-05T05:34:20.012Z,8.79
2018-05-05T05:35:28.844Z,8.8
2018-05-05T05:36:37.953Z,8.84
2018-05-05T05:37:46.933Z,8.77
2018-05-05T05:38:55.764Z,8.77
2018-05-05T05:40:04.595Z,8.87
2018-05-05T05:41:13.428Z,8.84
2018-05-05T05:42:22.536Z,8.92
2018-05-05T05:43:31.519Z,8.92
2018-05-05T05:44:40.353Z,8.96
2018-05-05T05:45:49.182Z,8.95
2018-05-05T05:46:58.017Z,8.91
2018-05-05T05:48:06.849Z,8.98
2018-05-05T05:49:16.033Z,8.98
2018-05-05T05:50:24.863Z,8.95
2018-05-05T05:51:33.704Z,8.92
2018-05-05T05:52:42.810Z,8.98
2018-05-05T05:53:51.644Z,9.11
2018-05-05T05:55:00.830Z,9.08
2018-05-05T05:56:09.657Z,9.04
2018-05-05T05:57:18.489Z,9.14
2018-05-05T05:58:27.323Z,9.2
2018-05-05T05:59:36.432Z,9.21
2018-05-05T06:00:45.260Z,9.14
2018-05-05T06:01:54.106Z,9.23
2018-05-05T06:03:03.202Z,9.18
2018-05-05T06:04:12.035Z,9.28
2018-05-05T06:05:20.900Z,9.23
2018-05-05T06:06:29.981Z,9.32
2018-05-05T06:07:38.815Z,9.35
2018-05-05T06:08:47.649Z,9.33
2018-05-05T06:09:56.483Z,9.36
2018-05-05T06:11:05.317Z,9.36
2018-05-05T06:12:14.300Z,9.39
2018-05-05T06:13:23.134Z,9.4
2018-05-05T06:14:31.967Z,9.53
2018-05-05T06:15:41.073Z,9.54
2018-05-05T06:16:49.908Z,9.54
2018-05-05T06:17:59.125Z,9.5
2018-05-05T06:19:08.512Z,9.54
2018-05-05T06:20:17.342Z,9.69
2018-05-05T06:21:26.174Z,9.69
2018-05-05T06:22:35.004Z,9.66
2018-05-05T06:23:43.935Z,9.71
2018-05-05T06:24:52.768Z,9.76
2018-05-05T06:26:01.603Z,9.75
2018-05-05T06:27:10.711Z,9.87
2018-05-05T06:28:19.542Z,9.94
2018-05-05T06:29:28.626Z,9.86
2018-05-05T06:30:37.464Z,9.94
2018-05-05T06:31:46.298Z,9.94
2018-05-05T06:32:55.131Z,9.91
2018-05-05T06:34:03.972Z,10.08
2018-05-05T06:35:13.080Z,10.09
2018-05-05T06:36:22.198Z,10.11
2018-05-05T06:37:31.025Z,10.2
2018-05-05T06:38:39.857Z,10.26
2018-05-05T06:39:48.690Z,10.32
2018-05-05T06:40:57.526Z,10.33
2018-05-05T06:42:06.365Z,10.51
2018-05-05T06:43:15.471Z,10.51
2018-05-05T06:44:24.305Z,10.52
2018-05-05T06:45:33.136Z,10.6
2018-05-05T06:46:42.175Z,10.74
2018-05-05T06:47:51.565Z,10.86
2018-05-05T06:49:00.398Z,10.85
2018-05-05T06:50:09.234Z,10.91
2018-05-05T06:51:18.065Z,10.97
2018-05-05T06:52:26.999Z,10.99
2018-05-05T06:53:35.834Z,11.09
2018-05-05T06:54:44.676Z,11.21
2018-05-05T06:55:53.507Z,11.18
2018-05-05T06:57:02.350Z,11.17
2018-05-05T06:58:11.277Z,11.28
2018-05-05T06:59:20.109Z,11.39
2018-05-05T07:00:28.942Z,11.39
2018-05-05T07:01:37.777Z,11.51
2018-05-05T07:02:46.895Z,11.52
2018-05-05T07:03:56.080Z,11.54
2018-05-05T07:05:04.913Z,11.54
2018-05-05T07:06:13.799Z,11.58
2018-05-05T07:07:22.637Z,11.72
2018-05-05T07:08:31.468Z,11.69
2018-05-05T07:09:40.503Z,11.65
2018-05-05T07:10:49.337Z,11.75
2018-05-05T07:11:58.171Z,11.85
2018-05-05T07:13:07.285Z,11.9
2018-05-05T07:14:16.126Z,11.94
2018-05-05T07:15:25.293Z,11.94
2018-05-05T07:16:34.069Z,11.96
2018-05-05T07:17:42.902Z,12.1
2018-05-05T07:18:51.736Z,12.01
2018-05-05T07:20:00.576Z,12.16
2018-05-05T07:21:09.411Z,12.13
2018-05-05T07:22:18.527Z,12.28
2018-05-05T07:23:27.361Z,12.32
2018-05-05T07:24:36.197Z,12.41
2018-05-05T07:25:45.310Z,12.46
2018-05-05T07:26:54.426Z,12.47
2018-05-05T07:28:03.542Z,12.56
2018-05-05T07:29:12.379Z,12.53
2018-05-05T07:30:21.215Z,12.67
2018-05-05T07:31:30.072Z,12.6
2018-05-05T07:32:39.437Z,12.71
2018-05-05T07:33:48.285Z,12.78
2018-05-05T07:34:57.396Z,12.92
2018-05-05T07:36:06.515Z,12.9
2018-05-05T07:37:15.631Z,12.96
2018-05-05T07:38:24.569Z,13.01
2018-05-05T07:39:33.404Z,13.04
2018-05-05T07:40:42.239Z,13.1
2018-05-05T07:41:51.359Z,13.05
2018-05-05T07:43:00.194Z,13.22
2018-05-05T07:44:09.087Z,13.23
2018-05-05T07:45:17.926Z,13.28
2018-05-05T07:46:27.045Z,13.41
2018-05-05T07:47:35.882Z,13.32
2018-05-05T07:48:44.717Z,13.32
2018-05-05T07:49:53.604Z,13.51
2018-05-05T07:51:02.440Z,13.49
2018-05-05T07:52:11.273Z,13.49
2018-05-05T07:53:20.388Z,13.46
2018-05-05T07:54:29.224Z,13.38
2018-05-05T07:55:38.062Z,13.44
2018-05-05T07:56:46.904Z,13.42
2018-05-05T07:57:55.739Z,13.45
2018-05-05T07:59:04.595Z,13.42
2018-05-05T08:00:13.714Z,13.55
2018-05-05T08:01:22.550Z,13.49
2018-05-05T08:02:31.662Z,13.57
2018-05-05T08:03:40.502Z,13.57
2018-05-05T08:04:49.369Z,13.57
2018-05-05T08:05:58.376Z,13.54
2018-05-05T08:07:07.564Z,13.46
2018-05-05T08:08:16.406Z,13.49
2018-05-05T08:09:25.271Z,13.46
2018-05-05T08:10:34.129Z,13.52
2018-05-05T08:11:42.913Z,13.52
2018-05-05T08:12:51.912Z,13.55
2018-05-05T08:14:00.747Z,13.52
2018-05-05T08:15:09.585Z,13.59
2018-05-05T08:16:18.697Z,13.59
2018-05-05T08:17:27.538Z,13.63
2018-05-05T08:18:36.624Z,13.64
2018-05-05T08:19:45.463Z,13.7
2018-05-05T08:20:54.308Z,13.7
2018-05-05T08:22:03.143Z,13.69
2018-05-05T08:23:11.981Z,13.81
2018-05-05T08:24:20.832Z,13.79
2018-05-05T08:25:29.667Z,13.78
2018-05-05T08:26:38.501Z,13.79
2018-05-05T08:27:47.348Z,13.91
2018-05-05T08:28:56.177Z,14.04
2018-05-05T08:30:05.367Z,14.09
2018-05-05T08:31:14.204Z,14.21
2018-05-05T08:32:23.042Z,14.24
2018-05-05T08:33:31.877Z,14.24
2018-05-05T08:34:40.710Z,14.36
2018-05-05T08:35:49.754Z,14.42
2018-05-05T08:36:58.585Z,14.51
2018-05-05T08:38:07.701Z,14.47
2018-05-05T08:39:16.536Z,14.57
2018-05-05T08:40:25.374Z,14.6
2018-05-05T08:41:34.365Z,14.57
2018-05-05T08:42:43.199Z,14.64
2018-05-05T08:43:52.035Z,14.64
2018-05-05T08:45:01.154Z,14.68
2018-05-05T08:46:09.988Z,14.68
2018-05-05T08:47:18.825Z,14.62
2018-05-05T08:48:27.661Z,14.78
2018-05-05T08:49:36.500Z,14.81
2018-05-05T08:50:45.684Z,14.84
2018-05-05T08:51:55.078Z,14.89
2018-05-05T08:53:03.915Z,14.89
2018-05-05T08:54:13.027Z,14.99
2018-05-05T08:55:22.305Z,14.96
2018-05-05T08:56:31.075Z,14.99
2018-05-05T08:57:39.913Z,15.13
2018-05-05T08:58:48.850Z,15.25
2018-05-05T08:59:57.688Z,15.25
2018-05-05T09:01:06.531Z,15.23
2018-05-05T09:02:15.636Z,15.23
2018-05-05T09:03:24.477Z,15.39
2018-05-05T09:04:33.587Z,15.38
2018-05-05T09:05:42.422Z,15.38
2018-05-05T09:06:51.259Z,15.44
2018-05-05T09:08:00.647Z,15.56
2018-05-05T09:09:09.484Z,15.62
2018-05-05T09:10:18.321Z,15.6
2018-05-05T09:11:27.447Z,15.56
2018-05-05T09:12:36.283Z,15.56
2018-05-05T09:13:45.402Z,15.65
2018-05-05T09:14:54.514Z,15.53
2018-05-05T09:16:03.453Z,15.54
2018-05-05T09:17:12.291Z,15.56
2018-05-05T09:18:21.125Z,15.74
2018-05-05T09:19:30.023Z,15.76
2018-05-05T09:20:39.137Z,15.75
2018-05-05T09:21:47.974Z,15.68
2018-05-05T09:22:56.951Z,15.67
2018-05-05T09:24:06.065Z,15.8
2018-05-05T09:25:14.902Z,15.74
2018-05-05T09:26:23.866Z,15.68
2018-05-05T09:27:32.760Z,15.83
2018-05-05T09:28:42.119Z,15.9
2018-05-05T09:29:50.952Z,16
2018-05-05T09:31:00.075Z,16
2018-05-05T09:32:09.188Z,15.97
2018-05-05T09:33:18.305Z,15.92
2018-05-05T09:34:27.419Z,15.92
2018-05-05T09:35:36.533Z,15.93
2018-05-05T09:36:45.374Z,15.93
2018-05-05T09:37:54.212Z,15.93
2018-05-05T09:39:03.148Z,16.17
2018-05-05T09:40:11.987Z,16.35
2018-05-05T09:41:20.824Z,16.49
2018-05-05T09:42:29.937Z,16.53
2018-05-05T09:43:38.782Z,16.58
2018-05-05T09:44:47.616Z,16.49
2018-05-05T09:45:56.738Z,16.5
2018-05-05T09:47:05.575Z,16.49
2018-05-05T09:48:14.686Z,16.45
2018-05-05T09:49:24.483Z,16.52
2018-05-05T09:50:33.470Z,16.7
2018-05-05T09:51:42.306Z,16.88
2018-05-05T09:52:51.142Z,16.85
2018-05-05T09:54:00.256Z,16.93
2018-05-05T09:55:09.098Z,16.88
2018-05-05T09:56:17.985Z,16.85
2018-05-05T09:57:27.099Z,16.85
2018-05-05T09:58:35.933Z,16.91
2018-05-05T09:59:44.769Z,16.89
2018-05-05T10:00:53.777Z,16.86
2018-05-05T10:02:02.897Z,16.75
2018-05-05T10:03:11.732Z,16.94
2018-05-05T10:04:20.571Z,16.96
2018-05-05T10:05:29.413Z,17.03
2018-05-05T10:06:38.249Z,16.97
2018-05-05T10:07:47.088Z,17.06
2018-05-05T10:08:56.391Z,16.97
2018-05-05T10:10:05.507Z,17.07
2018-05-05T10:11:14.676Z,17.04
2018-05-05T10:12:23.518Z,17.03
2018-05-05T10:13:32.362Z,17.34
2018-05-05T10:14:41.200Z,17.38
2018-05-05T10:15:50.994Z,17.41
2018-05-05T10:17:00.066Z,17.38
2018-05-05T10:18:08.903Z,17.48
2018-05-05T10:19:17.741Z,17.37
2018-05-05T10:20:26.853Z,17.3
2018-05-05T10:21:35.691Z,17.3
2018-05-05T10:22:44.529Z,17.33
2018-05-05T10:23:53.450Z,17.4
2018-05-05T10:25:02.206Z,17.36
2018-05-05T10:26:11.046Z,17.37
2018-05-05T10:27:20.159Z,17.48
2018-05-05T10:28:29.001Z,17.51
2018-05-05T10:29:38.114Z,17.56
2018-05-05T10:30:47.236Z,17.58
2018-05-05T10:31:56.094Z,17.66
2018-05-05T10:33:04.911Z,17.59
2018-05-05T10:34:13.758Z,17.7
2018-05-05T10:35:22.869Z,17.81
2018-05-05T10:36:31.709Z,17.84
2018-05-05T10:37:40.546Z,18.07
2018-05-05T10:38:49.775Z,18.1
2018-05-05T10:39:58.611Z,18.18
2018-05-05T10:41:07.723Z,18.2
2018-05-05T10:42:16.840Z,18.21
2018-05-05T10:43:25.678Z,18.25
2018-05-05T10:44:34.571Z,18.21
2018-05-05T10:45:43.353Z,18.17
2018-05-05T10:46:52.194Z,18.33
2018-05-05T10:48:01.050Z,18.26
2018-05-05T10:49:09.876Z,18.44
2018-05-05T10:50:18.808Z,18.47
2018-05-05T10:51:27.649Z,18.44
2018-05-05T10:52:36.766Z,18.55
2018-05-05T10:53:45.602Z,18.55
2018-05-05T10:54:54.444Z,18.54
2018-05-05T10:56:03.654Z,18.58
2018-05-05T10:57:12.495Z,18.67
2018-05-05T10:58:21.332Z,18.78
2018-05-05T10:59:30.169Z,18.75
2018-05-05T11:00:39.282Z,18.65
2018-05-05T11:01:48.468Z,18.66
2018-05-05T11:02:57.304Z,18.67
2018-05-05T11:04:06.142Z,18.67
2018-05-05T11:05:14.983Z,18.67
2018-05-05T11:06:23.824Z,18.7
2018-05-05T11:07:32.945Z,18.69
2018-05-05T11:08:41.778Z,18.78
2018-05-05T11:09:50.616Z,18.92
2018-05-05T11:10:59.455Z,18.98
2018-05-05T11:12:08.301Z,18.95
2018-05-05T11:13:17.279Z,18.91
2018-05-05T11:14:26.404Z,19.08
2018-05-05T11:15:35.238Z,19.06
2018-05-05T11:16:44.077Z,19.16
2018-05-05T11:17:52.915Z,19.31
2018-05-05T11:19:01.760Z,19.31
2018-05-05T11:20:11.178Z,19.33
2018-05-05T11:21:20.016Z,19.26
2018-05-05T11:22:28.855Z,19.23
2018-05-05T11:23:37.695Z,19.32
2018-05-05T11:24:47.186Z,19.33
2018-05-05T11:25:56.026Z,19.4
2018-05-05T11:27:04.908Z,19.41
2018-05-05T11:28:13.797Z,19.65
2018-05-05T11:29:22.638Z,19.71
2018-05-05T11:30:31.477Z,19.74
2018-05-05T11:31:40.317Z,19.78
2018-05-05T11:32:49.155Z,19.8
2018-05-05T11:33:57.993Z,19.76
2018-05-05T11:35:06.835Z,19.61
2018-05-05T11:36:15.675Z,19.73
2018-05-05T11:37:24.519Z,19.56
2018-05-05T11:38:33.365Z,19.68
2018-05-05T11:39:42.484Z,19.83
2018-05-05T11:40:51.321Z,20.03
2018-05-05T11:42:00.212Z,20.1
2018-05-05T11:43:09.054Z,20.13
2018-05-05T11:44:17.893Z,20.2
2018-05-05T11:45:26.735Z,20.1
2018-05-05T11:46:35.583Z,20.24
2018-05-05T11:47:44.846Z,20.35
2018-05-05T11:48:53.682Z,20.41
2018-05-05T11:50:02.523Z,20.35
2018-05-05T11:51:11.367Z,20.38
2018-05-05T11:52:20.199Z,20.36
2018-05-05T11:53:29.039Z,20.61
2018-05-05T11:54:37.882Z,20.66
2018-05-05T11:55:46.998Z,20.7
2018-05-05T11:56:55.887Z,20.77
2018-05-05T11:58:04.730Z,20.79
2018-05-05T11:59:13.670Z,20.84
2018-05-05T12:00:22.512Z,20.84
2018-05-05T12:01:31.743Z,20.97
2018-05-05T12:02:41.096Z,21.03
2018-05-05T12:03:50.213Z,21.03
2018-05-05T12:04:59.858Z,21.09
2018-05-05T12:06:08.976Z,21.27
2018-05-05T12:07:17.826Z,21.27
2018-05-05T12:08:26.667Z,21.25
2018-05-05T12:09:35.570Z,21.29
2018-05-05T12:10:44.667Z,21.27
2018-05-05T12:11:53.498Z,21.42
2018-05-05T12:13:02.346Z,21.47
2018-05-05T12:14:11.466Z,21.54
2018-05-05T12:15:20.316Z,21.65
2018-05-05T12:16:29.765Z,21.77
2018-05-05T12:17:38.613Z,21.77
2018-05-05T12:18:47.463Z,21.91
2018-05-05T12:19:56.598Z,21.8
2018-05-05T12:21:05.437Z,21.92
2018-05-05T12:22:14.820Z,21.94
2018-05-05T12:23:23.944Z,22.09
2018-05-05T12:24:32.790Z,22.22
2018-05-05T12:25:41.920Z,22.3
2018-05-05T12:26:50.769Z,22.3
2018-05-05T12:27:59.614Z,22.27
2018-05-05T12:29:08.462Z,22.27
2018-05-05T12:30:17.312Z,22.2
2018-05-05T12:31:26.157Z,22.15
2018-05-05T12:32:35.008Z,22.33
2018-05-05T12:33:44.056Z,22.27
2018-05-05T12:34:52.905Z,22.45
2018-05-05T12:36:01.756Z,22.65
2018-05-05T12:37:10.855Z,22.67
2018-05-05T12:38:19.703Z,22.68
2018-05-05T12:39:28.551Z,22.67
2018-05-05T12:40:37.402Z,22.72
2018-05-05T12:41:46.257Z,22.67
2018-05-05T12:42:55.106Z,22.77
2018-05-05T12:44:03.955Z,22.75
2018-05-05T12:45:12.853Z,22.77
2018-05-05T12:46:21.703Z,22.62
2018-05-05T12:47:30.550Z,22.65
2018-05-05T12:48:39.399Z,22.7
2018-05-05T12:49:48.254Z,22.82
2018-05-05T12:50:57.096Z,22.85
2018-05-05T12:52:05.946Z,23
2018-05-05T12:53:14.796Z,23.12
2018-05-05T12:54:23.649Z,23.38
2018-05-05T12:55:32.496Z,23.5
2018-05-05T12:56:41.404Z,23.54
2018-05-05T12:57:50.529Z,23.68
2018-05-05T12:58:59.381Z,23.69
2018-05-05T13:00:08.233Z,23.87
2018-05-05T13:01:17.112Z,24.22
2018-05-05T13:02:25.991Z,23.95
2018-05-05T13:03:35.114Z,24.18
2018-05-05T13:04:43.976Z,24.53
2018-05-05T13:05:52.827Z,24.67
2018-05-05T13:07:01.682Z,24.6
2018-05-05T13:08:10.582Z,24.65
2018-05-05T13:09:19.432Z,24.76
2018-05-05T13:10:28.284Z,24.77
2018-05-05T13:11:37.501Z,24.9
2018-05-05T13:12:46.272Z,24.99
2018-05-05T13:13:55.278Z,25.18
2018-05-05T13:15:04.130Z,25.23
2018-05-05T13:16:12.981Z,25.38
2018-05-05T13:17:21.838Z,25.47
2018-05-05T13:18:30.685Z,25.39
2018-05-05T13:19:39.893Z,25.4
2018-05-05T13:20:49.024Z,25.33
2018-05-05T13:21:57.876Z,25.51
2018-05-05T13:23:06.734Z,24.81
2018-05-05T13:24:15.918Z,25.03
2018-05-05T13:25:24.870Z,25.38
2018-05-05T13:26:33.724Z,25.21
2018-05-05T13:27:42.578Z,25.03
2018-05-05T13:28:51.429Z,25.33
2018-05-05T13:30:00.284Z,25.46
2018-05-05T13:31:09.189Z,25.72
2018-05-05T13:32:18.041Z,25.65
2018-05-05T13:33:27.121Z,25.77
2018-05-05T13:34:35.978Z,25.92
2018-05-05T13:35:44.829Z,25.64
2018-05-05T13:36:53.850Z,25.83
2018-05-05T13:38:03.259Z,25.94
2018-05-05T13:39:12.137Z,26.15
2018-05-05T13:40:20.997Z,26.25
2018-05-05T13:41:29.849Z,26.28
2018-05-05T13:42:38.751Z,26.28
2018-05-05T13:43:47.612Z,26.15
2018-05-05T13:44:57.017Z,26.5
2018-05-05T13:46:06.007Z,26.39
2018-05-05T13:47:14.863Z,26.57
2018-05-05T13:48:23.990Z,26.63
2018-05-05T13:49:32.843Z,26.55
2018-05-05T13:50:41.976Z,26.54
2018-05-05T13:51:51.120Z,26.09
2018-05-05T13:53:00.306Z,26.25
2018-05-05T13:54:09.490Z,26.37
2018-05-05T13:55:18.347Z,26.43
2018-05-05T13:56:27.516Z,26.55
2018-05-05T13:57:36.370Z,26.77
2018-05-05T13:58:45.231Z,27.02
2018-05-05T13:59:54.190Z,27.06
2018-05-05T14:01:03.051Z,26.94
2018-05-05T14:02:11.908Z,26.66
2018-05-05T14:03:21.039Z,26.75
2018-05-05T14:04:29.894Z,26.95
2018-05-05T14:05:39.096Z,26.77
2018-05-05T14:06:47.994Z,26.81
2018-05-05T14:07:56.841Z,26.88
2018-05-05T14:09:05.973Z,27.04
2018-05-05T14:10:14.830Z,27.22
2018-05-05T14:11:24.062Z,27.29
2018-05-05T14:12:32.935Z,27.28
2018-05-05T14:13:41.791Z,27.28
2018-05-05T14:14:50.648Z,27.04
2018-05-05T14:15:59.510Z,26.8
2018-05-05T14:17:08.810Z,27
2018-05-05T14:18:17.945Z,27.19
2018-05-05T14:19:27.081Z,27.24
2018-05-05T14:20:35.985Z,27.25
2018-05-05T14:21:45.119Z,27.04
2018-05-05T14:22:53.976Z,26.99
2018-05-05T14:24:02.909Z,27.1
2018-05-05T14:25:11.791Z,27.19
2018-05-05T14:26:20.930Z,27.31
2018-05-05T14:27:29.844Z,26.95
2018-05-05T14:28:38.970Z,27.04
2018-05-05T14:29:47.827Z,27.14
2018-05-05T14:30:56.975Z,27.21
2018-05-05T14:32:06.117Z,27.37
2018-05-05T14:33:14.978Z,27.27
2018-05-05T14:34:23.946Z,27.31
2018-05-05T14:35:33.090Z,26.95
2018-05-05T14:36:42.222Z,26.94
2018-05-05T14:37:51.141Z,27
2018-05-05T14:39:00.029Z,26.97
2018-05-05T14:40:09.161Z,27.04
2018-05-05T14:41:18.044Z,27.18
2018-05-05T14:42:26.951Z,27.18
2018-05-05T14:43:36.100Z,27.39
2018-05-05T14:44:44.956Z,27.59
2018-05-05T14:45:53.995Z,27.6
2018-05-05T14:47:03.131Z,27.5
2018-05-05T14:48:11.990Z,27.59
2018-05-05T14:49:20.852Z,27.74
2018-05-05T14:50:29.984Z,27.39
2018-05-05T14:51:38.848Z,27.62
2018-05-05T14:52:47.979Z,27.77
2018-05-05T14:53:56.835Z,27.92
2018-05-05T14:55:05.695Z,27.77
2018-05-05T14:56:14.554Z,27.7
2018-05-05T14:57:24.135Z,27.55
2018-05-05T14:58:33.096Z,27.72
2018-05-05T14:59:41.954Z,27.75
2018-05-05T15:00:50.814Z,27.88
2018-05-05T15:01:59.670Z,27.94
2018-05-05T15:03:08.954Z,27.85
2018-05-05T15:04:17.813Z,27.78